Time;durP1;ratioP1;P1;durP2;ratioP2;P2;SDS_P1;SDS_P2;PMS_P1;PMS_P2;Temp;Humidity;BMP_temperature;BMP_pressure;BME280_temperature;BME280_humidity;BME280_pressure;Samples;Min_cycle;Max_cycle;Signal;HPM_P1;HPM_P2
2021/04/12 04:18:08;;;;;;;9.35;8.30;;;;;;;2.95;92.43;99304.66;4978314;23;20143;-69
2021/04/12 04:21:01;;;;;;;10.00;8.13;;;;;;;2.87;92.70;99303.66;4916669;29;20112;-70
2021/04/12 04:23:59;;;;;;;9.82;7.80;;;;;;;2.78;92.56;99315.41;4911707;29;20039;-68
2021/04/12 04:26:42;;;;;;;10.48;8.65;;;;;;;2.79;92.09;99322.25;4916468;29;20512;-68
2021/04/12 04:29:22;;;;;;;9.10;7.75;;;;;;;2.72;93.01;99320.41;4911500;29;20036;-68
2021/04/12 04:32:12;;;;;;;10.40;7.50;;;;;;;2.77;92.45;99323.94;4908388;29;20425;-72
2021/04/12 04:35:02;;;;;;;9.55;8.23;;;;;;;2.46;92.27;99329.16;4906940;29;20032;-72
2021/04/12 04:37:51;;;;;;;8.73;7.03;;;;;;;2.71;93.03;99331.47;4907791;29;20550;-75
2021/04/12 04:40:54;;;;;;;13.68;8.18;;;;;;;2.74;92.31;99334.09;4907202;29;20090;-74
2021/04/12 04:43:45;;;;;;;10.65;7.63;;;;;;;2.82;92.52;99347.91;4907702;29;20195;-74
2021/04/12 04:46:34;;;;;;;11.50;7.55;;;;;;;2.75;91.32;99361.38;4907636;29;20028;-74
2021/04/12 04:49:36;;;;;;;8.38;7.28;;;;;;;2.44;92.12;99364.09;4907576;29;20032;-72
2021/04/12 04:52:32;;;;;;;7.50;6.25;;;;;;;2.42;90.85;99366.63;4907568;29;20114;-72
2021/04/12 04:55:23;;;;;;;6.60;5.75;;;;;;;2.38;91.73;99384.41;4907615;29;20036;-72
2021/04/12 04:58:04;;;;;;;6.18;5.63;;;;;;;2.30;91.60;99391.88;4906899;29;20032;-73
2021/04/12 05:00:40;;;;;;;6.88;6.05;;;;;;;2.23;91.85;99395.97;4907561;29;20039;-72
2021/04/12 05:03:18;;;;;;;10.35;6.82;;;;;;;2.31;92.73;99397.00;4818648;28;20063;-71
2021/04/12 05:06:18;;;;;;;7.60;6.88;;;;;;;2.44;92.04;99395.63;4926350;29;20027;-71
2021/04/12 05:09:21;;;;;;;8.45;6.45;;;;;;;2.42;91.15;99396.41;4926590;29;20481;-71
2021/04/12 05:12:17;;;;;;;7.80;7.00;;;;;;;2.13;92.70;99409.34;4926349;29;20429;-71
2021/04/12 05:15:19;;;;;;;8.13;6.22;;;;;;;2.33;91.80;99409.00;4926447;29;20519;-71
2021/04/12 05:18:03;;;;;;;6.95;6.10;;;;;;;2.21;92.80;99412.94;4926148;29;20046;-72
2021/04/12 05:20:51;;;;;;;6.28;5.68;;;;;;;2.33;92.46;99429.44;4926432;29;20035;-72
2021/04/12 05:23:38;;;;;;;6.60;5.90;;;;;;;2.31;93.48;99430.25;4926215;29;20079;-72
2021/04/12 05:26:29;;;;;;;8.25;5.35;;;;;;;2.36;91.72;99434.63;4926098;29;20043;-73
2021/04/12 05:29:17;;;;;;;7.53;6.30;;;;;;;2.28;91.43;99434.44;4925823;29;20028;-73
2021/04/12 05:31:48;;;;;;;8.23;7.20;;;;;;;2.19;92.94;99435.06;4926211;29;20066;-72
2021/04/12 05:34:37;;;;;;;13.25;10.38;;;;;;;2.40;94.03;99447.53;4923700;29;20078;-73
2021/04/12 05:37:25;;;;;;;7.82;6.80;;;;;;;2.50;93.18;99443.50;4920070;29;20054;-73
2021/04/12 05:40:28;;;;;;;7.78;6.97;;;;;;;2.46;91.73;99457.91;4915766;29;20695;-73
2021/04/12 05:43:11;;;;;;;9.60;6.93;;;;;;;2.50;92.84;99458.84;4925689;29;20031;-72
2021/04/12 05:45:40;;;;;;;10.88;7.00;;;;;;;2.47;92.27;99467.31;4926233;29;20498;-73
2021/04/12 05:48:24;;;;;;;9.77;7.95;;;;;;;2.60;92.38;99468.47;4925682;29;20114;-73
2021/04/12 05:51:17;;;;;;;9.35;7.57;;;;;;;2.52;91.32;99464.88;4925979;29;20413;-73
2021/04/12 05:53:56;;;;;;;8.52;7.65;;;;;;;2.34;91.19;99479.75;4929364;29;20050;-73
2021/04/12 05:56:39;;;;;;;9.73;8.70;;;;;;;2.49;95.29;99469.91;4929384;29;20507;-73
2021/04/12 05:59:18;;;;;;;10.55;9.38;;;;;;;2.56;93.22;99482.00;4929621;29;20485;-73
2021/04/12 06:01:56;;;;;;;12.10;8.98;;;;;;;2.43;91.14;99493.66;4943979;28;20034;-69
2021/04/12 06:04:33;;;;;;;10.02;8.32;;;;;;;2.62;91.66;99492.44;4929268;29;20035;-69
2021/04/12 06:07:16;;;;;;;10.85;9.13;;;;;;;2.55;91.31;99490.53;4929113;29;20066;-69
2021/04/12 06:10:24;;;;;;;11.88;8.63;;;;;;;2.57;91.75;99494.00;4928053;29;20059;-69
2021/04/12 06:12:59;;;;;;;10.38;8.80;;;;;;;2.84;92.52;99494.66;4928949;29;20047;-69
2021/04/12 06:15:49;;;;;;;9.10;8.15;;;;;;;2.80;90.78;99497.13;4929014;29;20043;-69
2021/04/12 06:18:37;;;;;;;12.80;8.93;;;;;;;2.64;90.77;99501.00;4929160;29;20032;-69
2021/04/12 06:21:21;;;;;;;11.18;8.73;;;;;;;2.76;91.69;99509.00;4928922;29;20027;-69
2021/04/12 06:23:58;;;;;;;11.23;9.40;;;;;;;2.93;91.90;99513.66;4928975;29;20028;-69
2021/04/12 06:27:01;;;;;;;9.77;8.77;;;;;;;2.93;92.83;99513.66;4929077;28;20118;-69
2021/04/12 06:29:40;;;;;;;11.65;9.60;;;;;;;2.92;91.07;99527.28;4929236;29;20020;-69
2021/04/12 06:32:30;;;;;;;9.70;8.70;;;;;;;2.83;91.10;99525.34;4928675;29;20140;-69
2021/04/12 06:34:55;;;;;;;;;;;;;;;3.11;91.85;99538.84;4928097;29;20037;-69
2021/04/12 06:37:41;;;;;;;11.00;8.57;;;;;;;3.27;91.27;99544.34;4929160;29;19919;-69
2021/04/12 06:40:43;;;;;;;12.25;8.23;;;;;;;3.23;91.96;99545.09;4928846;29;20374;-69
2021/04/12 06:43:36;;;;;;;10.15;8.60;;;;;;;3.35;90.06;99545.41;4928590;29;20027;-68
2021/04/12 06:46:32;;;;;;;12.93;7.80;;;;;;;3.52;89.74;99548.31;4928512;29;20031;-69
2021/04/12 06:49:28;;;;;;;11.05;7.47;;;;;;;3.46;89.79;99557.56;4928748;29;20036;-69
2021/04/12 06:52:30;;;;;;;11.82;7.68;;;;;;;3.47;90.47;99564.44;4928159;29;20118;-69
2021/04/12 06:55:05;;;;;;;10.93;7.20;;;;;;;3.61;90.06;99570.72;4928598;29;20514;-69
2021/04/12 06:57:59;;;;;;;11.63;7.57;;;;;;;3.68;89.85;99570.06;4928261;29;20114;-69
2021/04/12 07:00:47;;;;;;;11.32;8.80;;;;;;;3.87;88.23;99573.88;4927692;29;20036;-71
2021/04/12 07:03:53;;;;;;;12.07;8.65;;;;;;;3.62;88.86;99577.56;4927621;29;20032;-68
2021/04/12 07:07:00;;;;;;;12.57;9.85;;;;;;;3.57;89.70;99581.72;4928076;29;20397;-68
2021/04/12 07:09:57;;;;;;;11.15;9.70;;;;;;;3.44;90.72;99579.75;4928130;29;20525;-69
2021/04/12 07:12:59;;;;;;;18.42;9.93;;;;;;;3.41;90.94;99589.91;4928176;29;20055;-69
2021/04/12 07:16:01;;;;;;;15.75;10.93;;;;;;;3.26;90.69;99588.72;4927919;28;20035;-69
2021/04/12 07:18:37;;;;;;;18.02;10.45;;;;;;;3.22;91.25;99594.56;4928038;29;20042;-69
2021/04/12 07:21:40;;;;;;;15.32;11.90;;;;;;;3.26;90.97;99596.38;4928245;29;20138;-69
2021/04/12 07:24:35;;;;;;;22.70;11.70;;;;;;;3.34;90.44;99594.88;4927654;29;20226;-69
2021/04/12 07:27:37;;;;;;;21.23;13.10;;;;;;;3.58;91.15;99604.84;4927762;29;20027;-69
2021/04/12 07:30:40;;;;;;;18.00;13.40;;;;;;;3.76;91.21;99608.66;4927769;29;20642;-69
2021/04/12 07:33:18;;;;;;;24.17;14.60;;;;;;;3.88;90.92;99618.31;4927535;29;20036;-70
2021/04/12 07:35:46;;;;;;;16.55;12.38;;;;;;;3.97;89.49;99613.41;4928154;29;20035;-69
2021/04/12 07:38:11;;;;;;;14.57;11.65;;;;;;;3.90;89.71;99611.53;4927582;29;20032;-69
2021/04/12 07:40:49;;;;;;;14.63;12.50;;;;;;;3.76;88.18;99614.63;4927778;29;20037;-70
2021/04/12 07:43:32;;;;;;;15.88;12.80;;;;;;;3.89;90.68;99620.06;4927398;29;20038;-69
2021/04/12 07:46:35;;;;;;;14.95;11.98;;;;;;;4.00;88.83;99613.44;4927887;29;20071;-69
2021/04/12 07:49:32;;;;;;;18.05;12.75;;;;;;;4.16;88.04;99615.53;4927494;29;20078;-69
2021/04/12 07:51:57;;;;;;;16.98;12.65;;;;;;;4.03;88.49;99624.66;4927644;29;20046;-69
2021/04/12 07:54:22;;;;;;;17.70;12.73;;;;;;;4.20;88.26;99627.56;4927327;29;20028;-69
2021/04/12 07:57:13;;;;;;;16.13;12.38;;;;;;;4.16;88.97;99630.03;4927263;29;20334;-69
2021/04/12 08:00:03;;;;;;;20.58;12.85;;;;;;;4.06;88.16;99634.09;4904468;29;21377;-69
2021/04/12 08:02:47;;;;;;;;;;;;;;;4.15;88.88;99639.41;4927577;29;20039;-69
2021/04/12 08:05:37;;;;;;;21.77;12.15;;;;;;;4.02;88.25;99637.44;4927121;29;19919;-69
2021/04/12 08:08:29;;;;;;;16.58;13.00;;;;;;;3.95;87.93;99650.94;4926780;29;20031;-69
2021/04/12 08:11:29;;;;;;;26.13;14.65;;;;;;;3.91;89.34;99652.56;4916903;29;20079;-69
2021/04/12 08:14:11;;;;;;;29.73;15.43;;;;;;;4.13;88.56;99661.63;4926455;29;20470;-69
2021/04/12 08:16:56;;;;;;;22.45;15.27;;;;;;;4.18;86.70;99660.00;4927029;29;20039;-69
2021/04/12 08:19:32;;;;;;;21.60;14.75;;;;;;;4.05;86.75;99656.31;4926783;29;20078;-69
2021/04/12 08:22:28;;;;;;;23.70;16.30;;;;;;;4.10;87.75;99657.28;4926791;29;20035;-69
2021/04/12 08:25:15;;;;;;;23.20;15.98;;;;;;;4.10;87.36;99657.28;4926840;29;20559;-69
2021/04/12 08:27:55;;;;;;;21.63;16.08;;;;;;;4.24;86.82;99660.13;4926076;29;20032;-69
2021/04/12 08:30:58;;;;;;;21.95;16.05;;;;;;;4.14;86.49;99668.47;4926980;29;20067;-69
2021/04/12 08:33:45;;;;;;;25.50;15.88;;;;;;;4.12;86.32;99672.72;4925414;29;20059;-69
2021/04/12 08:36:37;;;;;;;21.23;16.23;;;;;;;4.16;86.71;99671.94;4926566;29;20085;-69
2021/04/12 08:39:40;;;;;;;20.98;15.98;;;;;;;4.32;85.91;99676.56;4926474;29;20024;-69
2021/04/12 08:42:30;;;;;;;24.98;16.65;;;;;;;4.53;85.14;99672.72;4941036;29;20049;-68
2021/04/12 08:45:30;;;;;;;22.75;15.85;;;;;;;4.46;85.51;99673.44;4926532;29;20122;-68
2021/04/12 08:48:12;;;;;;;20.67;14.68;;;;;;;4.82;82.84;99676.72;4926393;29;20512;-68
2021/04/12 08:50:47;;;;;;;21.35;15.40;;;;;;;5.04;82.71;99677.16;4926368;29;20482;-69
2021/04/12 08:53:51;;;;;;;18.35;13.90;;;;;;;5.10;80.77;99690.09;4926087;29;20061;-68
2021/04/12 08:56:50;;;;;;;20.70;14.15;;;;;;;5.10;82.48;99683.25;4926828;29;20949;-70
2021/04/12 08:59:48;;;;;;;20.77;14.05;;;;;;;4.94;82.25;99690.66;4926197;29;20062;-69
2021/04/12 09:02:38;;;;;;;23.77;14.43;;;;;;;5.12;81.28;99691.84;4926312;29;20031;-69
2021/04/12 09:05:30;;;;;;;25.55;14.88;;;;;;;5.67;79.32;99682.53;4926187;29;20031;-69
2021/04/12 09:08:03;;;;;;;18.48;12.80;;;;;;;5.66;79.34;99685.97;4926201;29;20268;-69
2021/04/12 09:10:35;;;;;;;18.20;12.40;;;;;;;5.93;76.83;99693.25;4926238;29;20434;-69
2021/04/12 09:13:25;;;;;;;21.10;13.02;;;;;;;6.25;77.75;99698.03;4926116;29;20070;-69
2021/04/12 09:16:12;;;;;;;18.00;12.98;;;;;;;6.10;76.86;99702.97;4926074;29;20391;-69
2021/04/12 09:18:59;;;;;;;14.57;10.63;;;;;;;5.93;76.47;99700.97;4926007;29;20027;-69
2021/04/12 09:21:33;;;;;;;18.40;11.10;;;;;;;5.63;77.09;99705.59;4926090;29;20035;-69
2021/04/12 09:24:02;;;;;;;14.55;11.48;;;;;;;5.50;78.28;99706.22;4924459;29;20692;-70
2021/04/12 09:26:40;;;;;;;15.75;11.50;;;;;;;5.78;75.96;99705.84;4928057;29;20031;-70
2021/04/12 09:29:17;;;;;;;15.52;11.07;;;;;;;5.70;78.19;99711.69;4930189;29;20027;-70
2021/04/12 09:32:20;;;;;;;16.20;10.50;;;;;;;6.06;75.72;99716.63;4930010;29;20062;-70
2021/04/12 09:35:21;;;;;;;12.20;10.00;;;;;;;6.01;73.26;99707.97;4929932;29;20039;-70
2021/04/12 09:38:21;;;;;;;14.10;10.52;;;;;;;6.10;73.24;99713.25;4901603;29;20047;-69
2021/04/12 09:41:14;;;;;;;12.07;9.90;;;;;;;5.79;75.62;99717.84;4929595;29;20038;-70
2021/04/12 09:43:54;;;;;;;12.32;9.93;;;;;;;6.16;74.37;99728.78;4929626;29;20035;-69
2021/04/12 09:46:26;;;;;;;13.02;8.98;;;;;;;6.07;70.23;99718.34;4929787;29;20035;-68
2021/04/12 09:49:21;;;;;;;11.45;8.15;;;;;;;5.81;72.98;99723.91;4929527;29;20043;-69
2021/04/12 09:52:04;;;;;;;12.07;9.00;;;;;;;5.84;71.81;99729.09;4929554;29;20492;-69
2021/04/12 09:54:35;;;;;;;12.32;8.68;;;;;;;6.17;72.81;99730.50;4929503;29;20031;-69
2021/04/12 09:57:26;;;;;;;17.35;9.30;;;;;;;5.53;71.34;99729.44;4929599;29;20457;-70
2021/04/12 10:00:10;;;;;;;11.23;8.77;;;;;;;6.35;69.95;99728.19;4929460;29;20106;-70
2021/04/12 10:03:15;;;;;;;17.08;8.48;;;;;;;6.46;71.35;99737.78;4929413;29;20070;-70
2021/04/12 10:05:49;;;;;;;13.65;8.70;;;;;;;6.40;71.34;99741.13;4904845;29;20132;-70
2021/04/12 10:08:35;;;;;;;12.27;8.05;;;;;;;6.61;71.36;99737.97;4929281;29;20055;-70
2021/04/12 10:11:09;;;;;;;8.80;6.97;;;;;;;6.41;68.72;99743.72;4929161;29;20031;-70
2021/04/12 10:13:42;;;;;;;8.98;7.05;;;;;;;6.74;69.21;99745.03;4929361;29;20028;-70
2021/04/12 10:16:20;;;;;;;13.48;7.00;;;;;;;6.95;66.24;99744.41;4929172;29;20047;-70
2021/04/12 10:19:03;;;;;;;10.55;7.13;;;;;;;6.88;66.85;99753.81;4929408;29;20039;-70
2021/04/12 10:21:55;;;;;;;8.55;6.70;;;;;;;6.51;67.27;99752.44;4928956;29;20090;-70
2021/04/12 10:24:31;;;;;;;13.23;7.22;;;;;;;6.32;66.96;99763.31;4919053;29;20512;-70
2021/04/12 10:26:59;;;;;;;13.35;7.72;;;;;;;6.31;70.41;99762.44;4927574;29;20386;-70
2021/04/12 10:29:36;;;;;;;11.38;7.10;;;;;;;6.56;69.19;99760.22;4928990;29;20039;-71
2021/04/12 10:32:21;;;;;;;9.82;6.63;;;;;;;6.56;64.75;99752.50;4929507;29;20065;-73
2021/04/12 10:34:53;;;;;;;12.65;6.70;;;;;;;6.11;65.04;99757.00;4928969;29;20036;-72
2021/04/12 10:37:35;;;;;;;11.10;6.18;;;;;;;6.41;67.38;99764.31;4927672;29;20043;-72
2021/04/12 10:40:31;;;;;;;10.65;6.53;;;;;;;6.20;69.32;99766.56;4928835;29;20090;-72
2021/04/12 10:43:08;;;;;;;8.45;5.32;;;;;;;6.57;61.31;99756.81;4928611;29;20031;-72
2021/04/12 10:45:45;;;;;;;11.48;5.32;;;;;;;6.86;61.38;99752.91;4928580;29;20393;-73
2021/04/12 10:48:25;;;;;;;8.07;5.07;;;;;;;6.77;62.31;99750.22;4928671;29;20954;-72
2021/04/12 10:51:21;;;;;;;6.90;5.03;;;;;;;7.43;62.80;99750.97;4928640;29;20023;-73
2021/04/12 10:53:52;;;;;;;6.22;5.63;;;;;;;7.52;59.07;99757.94;4928349;29;20031;-73
2021/04/12 10:56:40;;;;;;;7.18;5.88;;;;;;;7.46;60.04;99753.59;4928389;29;20031;-72
2021/04/12 10:59:30;;;;;;;6.47;5.80;;;;;;;7.37;61.39;99754.38;4928403;29;20106;-72
2021/04/12 11:01:59;;;;;;;;;;;;;;;7.21;59.56;99753.34;4928748;29;20036;-73
2021/04/12 11:04:25;;;;;;;17.75;5.78;;;;;;;6.63;65.03;99756.91;4928228;29;19954;-72
2021/04/12 11:07:11;;;;;;;7.65;5.50;;;;;;;6.71;61.77;99757.84;4928457;29;20143;-71
2021/04/12 11:09:55;;;;;;;7.00;4.88;;;;;;;6.22;60.55;99758.88;4928268;29;20394;-73
2021/04/12 11:12:26;;;;;;;5.10;4.53;;;;;;;6.13;65.99;99767.31;4928109;29;20044;-72
2021/04/12 11:15:33;;;;;;;8.68;5.57;;;;;;;5.43;67.15;99773.78;4927994;29;20071;-71
2021/04/12 11:18:31;;;;;;;10.63;6.15;;;;;;;5.28;67.38;99769.22;4924981;29;20051;-72
2021/04/12 11:21:33;;;;;;;8.93;5.82;;;;;;;6.08;69.22;99766.38;4927827;29;20027;-72
2021/04/12 11:24:26;;;;;;;11.88;5.93;;;;;;;6.28;64.21;99764.97;4927929;29;20061;-72
2021/04/12 11:27:29;;;;;;;7.97;5.40;;;;;;;6.77;65.35;99760.53;4927909;29;20039;-72
2021/04/12 11:30:07;;;;;;;8.00;5.10;;;;;;;6.95;62.07;99758.16;4926532;29;20028;-72
2021/04/12 11:32:54;;;;;;;6.00;5.15;;;;;;;7.00;60.50;99770.25;4927609;29;20038;-73
2021/04/12 11:35:39;;;;;;;9.60;5.72;;;;;;;6.96;61.60;99769.34;4927717;29;20036;-73
2021/04/12 11:38:16;;;;;;;8.25;4.63;;;;;;;7.01;63.82;99770.28;4928018;29;20024;-73
2021/04/12 11:41:02;;;;;;;6.88;4.60;;;;;;;5.75;62.58;99780.34;4927747;29;20363;-72
2021/04/12 11:43:33;;;;;;;8.63;4.35;;;;;;;6.08;64.18;99776.66;4926147;29;20138;-73
2021/04/12 11:46:06;;;;;;;4.10;3.70;;;;;;;6.03;60.67;99780.88;4927495;29;20123;-72
2021/04/12 11:48:47;;;;;;;4.50;4.10;;;;;;;6.29;61.38;99782.16;4927475;29;20039;-72
2021/04/12 11:51:22;;;;;;;5.80;3.85;;;;;;;6.54;61.33;99775.66;4926162;29;20086;-72
2021/04/12 11:53:57;;;;;;;4.57;3.47;;;;;;;7.72;56.68;99777.06;4927411;29;20722;-72
2021/04/12 11:56:44;;;;;;;6.55;3.67;;;;;;;9.10;49.15;99758.22;4927204;29;20070;-72
2021/04/12 12:00:03;;;;;;;4.35;3.17;;;;;;;9.73;51.28;99760.97;4927521;29;20027;-72
2021/04/12 12:02:44;;;;;;;3.13;2.75;;;;;;;10.21;47.99;99769.63;4886627;29;20123;-72
2021/04/12 12:05:47;;;;;;;4.00;3.00;;;;;;;9.66;49.41;99774.75;4923095;29;20039;-74
2021/04/12 12:08:23;;;;;;;5.93;3.50;;;;;;;8.45;53.38;99777.69;4927104;29;20032;-74
2021/04/12 12:10:51;;;;;;;2.95;2.60;;;;;;;8.42;51.90;99772.50;4925814;29;20031;-74
2021/04/12 12:13:35;;;;;;;4.82;3.10;;;;;;;8.56;50.93;99772.59;4925468;29;20050;-74
2021/04/12 12:16:06;;;;;;;7.03;2.90;;;;;;;8.23;53.56;99784.41;4926934;29;20064;-74
2021/04/12 12:18:54;;;;;;;15.07;7.50;;;;;;;8.21;53.34;99785.22;4927022;29;20664;-74
2021/04/12 12:21:45;;;;;;;3.50;3.20;;;;;;;8.56;52.33;99779.47;4926780;29;20393;-75
2021/04/12 12:24:35;;;;;;;9.38;4.90;;;;;;;9.70;49.12;99772.16;4926921;29;20512;-74
2021/04/12 12:27:08;;;;;;;5.90;3.28;;;;;;;9.50;45.39;99773.84;4926019;29;20035;-74
2021/04/12 12:29:48;;;;;;;4.38;3.30;;;;;;;9.98;45.70;99773.06;4925436;29;20087;-74
2021/04/12 12:32:22;;;;;;;5.20;2.70;;;;;;;10.56;43.81;99769.59;4926698;29;20032;-74
2021/04/12 12:35:12;;;;;;;5.85;2.97;;;;;;;10.65;44.80;99766.13;4926948;29;20123;-75
2021/04/12 12:38:14;;;;;;;7.78;4.53;;;;;;;10.65;46.02;99771.31;4926528;29;20098;-74
2021/04/12 12:40:46;;;;;;;11.40;3.20;;;;;;;10.87;43.65;99779.88;4926623;29;20433;-74
2021/04/12 12:43:19;;;;;;;7.70;3.17;;;;;;;10.88;43.67;99779.91;4925917;29;20028;-74
2021/04/12 12:45:45;;;;;;;6.72;3.20;;;;;;;9.61;45.19;99787.66;4926750;29;20032;-74
2021/04/12 12:48:23;;;;;;;4.10;2.80;;;;;;;9.46;49.72;99791.09;4926546;29;20388;-74
2021/04/12 12:51:08;;;;;;;6.03;2.72;;;;;;;9.56;46.10;99789.38;4926283;29;20396;-72
2021/04/12 12:53:37;;;;;;;4.53;2.42;;;;;;;8.85;49.27;99789.97;4926230;29;20035;-72
2021/04/12 12:56:16;;;;;;;3.17;2.85;;;;;;;9.05;48.88;99790.97;4926258;29;20063;-73
2021/04/12 12:58:54;;;;;;;3.45;2.50;;;;;;;8.91;48.48;99793.47;4926343;29;20039;-73
2021/04/12 13:01:33;;;;;;;2.90;2.60;;;;;;;8.27;47.87;99790.47;4925862;29;20042;-73
2021/04/12 13:04:13;;;;;;;4.25;2.63;;;;;;;8.99;47.33;99781.47;4926639;29;20035;-73
2021/04/12 13:06:39;;;;;;;;;;;;;;;8.98;45.95;99791.75;4925391;29;20032;-73
2021/04/12 13:09:12;;;;;;;4.72;2.65;;;;;;;9.10;46.17;99778.06;4926193;29;19946;-73
2021/04/12 13:11:43;;;;;;;4.03;2.75;;;;;;;9.37;46.88;99783.28;4926019;29;20042;-73
2021/04/12 13:14:19;;;;;;;14.20;6.32;;;;;;;9.50;45.27;99785.06;4926097;29;20118;-72
2021/04/12 13:16:45;;;;;;;5.80;4.00;;;;;;;9.32;44.96;99785.00;4925994;29;20083;-72
2021/04/12 13:19:14;;;;;;;12.77;3.20;;;;;;;9.31;47.26;99788.47;4926174;29;20027;-72
2021/04/12 13:21:43;;;;;;;3.85;2.33;;;;;;;9.58;44.73;99776.47;4925979;29;20082;-72
2021/04/12 13:24:26;;;;;;;6.03;3.15;;;;;;;9.17;47.59;99785.81;4925914;29;20114;-72
2021/04/12 13:26:59;;;;;;;4.75;2.67;;;;;;;9.72;47.42;99780.81;4925942;29;20486;-72
2021/04/12 13:29:33;;;;;;;10.30;2.70;;;;;;;9.44;43.68;99779.88;4926330;29;20039;-71
2021/04/12 13:32:11;;;;;;;5.88;2.90;;;;;;;9.31;45.74;99785.88;4925885;29;20127;-72
2021/04/12 13:34:54;;;;;;;5.53;2.85;;;;;;;9.61;45.68;99782.50;4926078;29;20042;-72
2021/04/12 13:37:25;;;;;;;3.25;2.20;;;;;;;9.50;43.95;99782.47;4926137;29;20437;-72
2021/04/12 13:40:00;;;;;;;5.30;2.80;;;;;;;9.50;43.99;99782.47;4926132;29;20042;-72
2021/04/12 13:42:28;;;;;;;3.80;2.30;;;;;;;9.59;44.53;99778.19;4925662;29;20032;-72
2021/04/12 13:45:00;;;;;;;2.63;2.42;;;;;;;10.25;44.14;99776.53;4925955;29;20123;-72
2021/04/12 13:47:32;;;;;;;2.10;1.90;;;;;;;10.41;40.78;99773.09;4925708;29;20059;-72
2021/04/12 13:50:09;;;;;;;3.63;2.13;;;;;;;10.09;43.13;99782.56;4925820;29;20032;-72
2021/04/12 13:52:42;;;;;;;5.85;2.17;;;;;;;10.16;42.66;99768.75;4925797;29;20039;-72
2021/04/12 13:55:29;;;;;;;5.70;2.50;;;;;;;10.01;40.41;99767.91;4926271;29;20489;-73
2021/04/12 13:58:01;;;;;;;5.85;1.75;;;;;;;10.19;40.55;99773.91;4925780;29;20592;-72
2021/04/12 14:00:38;;;;;;;5.43;2.10;;;;;;;10.03;41.49;99763.56;4896689;28;20090;-72
2021/04/12 14:03:13;;;;;;;4.18;1.80;;;;;;;10.77;40.87;99761.75;4925602;29;20032;-72
2021/04/12 14:05:41;;;;;;;3.25;1.98;;;;;;;8.40;42.53;99771.63;4925653;29;20055;-72
2021/04/12 14:08:22;;;;;;;2.83;1.80;;;;;;;9.51;44.39;99766.09;4925754;29;20082;-72
2021/04/12 14:11:05;;;;;;;2.55;2.25;;;;;;;8.52;42.45;99773.44;4925750;29;20036;-72
2021/04/12 14:13:34;;;;;;;3.60;2.22;;;;;;;8.75;43.22;99770.97;4927457;29;20038;-72
2021/04/12 14:16:25;;;;;;;2.27;1.67;;;;;;;8.72;42.74;99770.97;4929103;29;20036;-72
2021/04/12 14:18:58;;;;;;;3.60;1.75;;;;;;;9.68;38.10;99767.88;4929051;29;20086;-72
2021/04/12 14:21:26;;;;;;;4.65;1.90;;;;;;;9.32;38.87;99782.41;4929203;29;20031;-73
2021/04/12 14:24:01;;;;;;;3.20;1.58;;;;;;;9.42;37.52;99776.41;4928813;29;20035;-73
2021/04/12 14:26:31;;;;;;;2.85;1.70;;;;;;;9.45;40.79;99775.56;4928960;29;20039;-73
2021/04/12 14:29:20;;;;;;;3.22;1.70;;;;;;;9.24;38.08;99776.38;4928841;29;20036;-73
2021/04/12 14:31:46;;;;;;;3.72;1.50;;;;;;;9.05;41.03;99782.34;4928463;29;20058;-73
2021/04/12 14:34:26;;;;;;;2.67;1.40;;;;;;;8.80;40.17;99787.38;4928879;29;20038;-72
2021/04/12 14:36:52;;;;;;;2.10;1.60;;;;;;;8.78;40.55;99790.81;4929155;29;20043;-72
2021/04/12 14:39:24;;;;;;;17.35;10.45;;;;;;;8.86;41.01;99795.16;4928897;29;20082;-72
2021/04/12 14:41:59;;;;;;;5.22;1.95;;;;;;;8.58;42.84;99798.44;4928774;29;20082;-72
2021/04/12 14:44:32;;;;;;;6.05;2.33;;;;;;;8.09;46.27;99801.47;4929115;28;20422;-72
2021/04/12 14:46:59;;;;;;;5.28;1.92;;;;;;;8.32;47.74;99801.69;4928922;29;20032;-72
2021/04/12 14:49:37;;;;;;;3.88;2.40;;;;;;;8.18;49.21;99809.31;4928396;28;20401;-72
2021/04/12 14:52:15;;;;;;;2.95;2.30;;;;;;;7.55;48.10;99819.88;4928316;29;20438;-72
2021/04/12 14:54:43;;;;;;;4.15;2.40;;;;;;;7.31;49.14;99818.75;4928540;29;20027;-72
2021/04/12 14:57:19;;;;;;;4.80;2.40;;;;;;;8.33;46.89;99808.56;4928404;29;20405;-69
2021/04/12 14:59:54;;;;;;;6.35;2.17;;;;;;;8.20;45.72;99806.72;4928414;29;20058;-69
2021/04/12 15:02:58;;;;;;;4.88;2.75;;;;;;;9.34;45.56;99804.00;4928336;29;20153;-69
2021/04/12 15:05:40;;;;;;;3.22;1.60;;;;;;;9.81;42.61;99790.28;4928722;29;20094;-69
2021/04/12 15:08:40;;;;;;;2.72;1.73;;;;;;;9.61;40.55;99797.16;4928129;29;20126;-69
2021/04/12 15:11:14;;;;;;;4.65;1.77;;;;;;;8.82;43.06;99803.75;4909787;29;20533;-69
2021/04/12 15:13:56;;;;;;;5.10;2.25;;;;;;;8.61;41.96;99798.47;4927987;29;20571;-69
2021/04/12 15:16:46;;;;;;;3.67;1.88;;;;;;;8.62;41.27;99806.22;4927771;29;20723;-69
2021/04/12 15:19:26;;;;;;;2.88;1.52;;;;;;;8.94;42.97;99801.22;4928218;29;20050;-69
2021/04/12 15:21:56;;;;;;;4.03;1.65;;;;;;;9.27;41.66;99797.91;4927645;29;20043;-69
2021/04/12 15:24:25;;;;;;;3.47;1.40;;;;;;;9.20;40.19;99796.19;4927218;29;20027;-69
2021/04/12 15:27:00;;;;;;;1.92;1.40;;;;;;;9.23;38.91;99795.31;4926459;29;20036;-69
2021/04/12 15:29:38;;;;;;;19.77;7.78;;;;;;;9.67;40.28;99784.22;4927866;29;20042;-69
2021/04/12 15:32:20;;;;;;;15.98;7.43;;;;;;;9.71;40.28;99788.56;4927375;29;20114;-70
2021/04/12 15:34:50;;;;;;;2.25;2.00;;;;;;;9.35;41.87;99794.50;4942286;29;20035;-69
2021/04/12 15:37:53;;;;;;;3.72;1.80;;;;;;;9.38;41.72;99799.69;4927708;29;20171;-68
2021/04/12 15:40:21;;;;;;;3.60;1.50;;;;;;;10.33;38.59;99792.06;4881118;29;20129;-69
2021/04/12 15:43:03;;;;;;;2.78;2.38;;;;;;;10.37;38.80;99786.91;4919298;29;20046;-69
2021/04/12 15:45:37;;;;;;;3.30;1.80;;;;;;;9.47;40.37;99799.72;4927493;29;20036;-69
2021/04/12 15:48:11;;;;;;;5.20;1.80;;;;;;;8.50;42.11;99806.97;4927632;29;20034;-69
2021/04/12 15:50:43;;;;;;;5.70;2.35;;;;;;;8.68;44.79;99802.81;4927554;29;20036;-69
2021/04/12 15:53:19;;;;;;;2.97;1.58;;;;;;;8.70;41.60;99798.50;4927265;29;20031;-70
2021/04/12 15:56:01;;;;;;;5.97;2.22;;;;;;;8.06;44.77;99810.91;4927355;29;20276;-70
2021/04/12 15:58:37;;;;;;;4.80;2.38;;;;;;;7.39;44.60;99814.53;4927388;29;20098;-70
2021/04/12 16:01:26;;;;;;;5.97;2.15;;;;;;;7.65;44.78;99811.41;4927216;29;20572;-70
2021/04/12 16:03:58;;;;;;;3.67;1.85;;;;;;;7.56;45.54;99819.03;4927119;29;20031;-70
2021/04/12 16:06:26;;;;;;;5.05;2.10;;;;;;;8.47;44.57;99811.28;4927098;29;20028;-70
2021/04/12 16:09:07;;;;;;;5.43;2.05;;;;;;;9.14;41.86;99813.41;4926963;29;20091;-70
2021/04/12 16:11:42;;;;;;;4.03;2.10;;;;;;;9.28;40.99;99814.28;4927112;29;20035;-69
2021/04/12 16:14:42;;;;;;;3.42;1.70;;;;;;;9.33;40.67;99802.28;4926809;29;20122;-69
2021/04/12 16:17:27;;;;;;;4.30;1.90;;;;;;;8.28;42.07;99807.66;4926839;29;20374;-70
2021/04/12 16:20:15;;;;;;;3.60;1.60;;;;;;;8.42;42.95;99819.00;4927741;29;20027;-69
2021/04/12 16:22:50;;;;;;;5.05;2.05;;;;;;;8.47;42.42;99811.28;4916429;29;20134;-69
2021/04/12 16:25:22;;;;;;;3.30;1.90;;;;;;;8.77;41.90;99810.63;4926815;29;20027;-70
2021/04/12 16:28:17;;;;;;;7.90;4.28;;;;;;;8.84;42.89;99812.38;4926992;29;20315;-70
2021/04/12 16:31:01;;;;;;;2.08;1.88;;;;;;;8.98;41.89;99821.06;4926902;29;20651;-69
2021/04/12 16:33:39;;;;;;;1.80;1.63;;;;;;;8.95;42.73;99817.63;4926750;29;20075;-69
2021/04/12 16:36:08;;;;;;;7.75;5.45;;;;;;;8.55;42.92;99824.25;4925978;29;20035;-69
2021/04/12 16:38:40;;;;;;;7.25;3.72;;;;;;;8.47;44.37;99827.66;4926813;29;20074;-69
2021/04/12 16:41:15;;;;;;;41.05;18.58;;;;;;;8.15;43.37;99829.06;4926804;29;20039;-69
2021/04/12 16:43:48;;;;;;;4.45;3.15;;;;;;;8.38;44.10;99832.75;4926564;29;20038;-69
2021/04/12 16:46:31;;;;;;;8.02;2.92;;;;;;;7.59;45.24;99842.25;4926467;29;20042;-67
2021/04/12 16:49:03;;;;;;;3.05;2.17;;;;;;;7.52;46.99;99840.47;4926515;29;20454;-67
2021/04/12 16:51:33;;;;;;;2.97;2.22;;;;;;;6.88;47.30;99845.69;4926650;29;20375;-68
2021/04/12 16:54:07;;;;;;;3.00;2.10;;;;;;;6.30;48.94;99847.38;4926355;29;20023;-68
2021/04/12 16:56:44;;;;;;;3.53;2.50;;;;;;;6.30;50.34;99850.81;4926644;29;20047;-68
2021/04/12 16:59:29;;;;;;;4.90;2.25;;;;;;;5.83;52.60;99857.66;4926479;29;20036;-68
2021/04/12 17:02:01;;;;;;;7.05;3.03;;;;;;;5.55;57.49;99853.69;4926337;29;20028;-68
2021/04/12 17:04:43;;;;;;;5.50;2.33;;;;;;;5.58;60.35;99864.91;4926363;29;20028;-68
2021/04/12 17:07:16;;;;;;;6.55;2.58;;;;;;;5.71;60.45;99866.03;4926348;29;20031;-67